Terminal Aerodrome Forecast
Issued by NWS

Home | Current Version | Previous Version | Graphics & Text | Print | Product List | Glossary On
Versions: 1 2 3 4 5 6 7 8 9 10 11 12 13 14 15 16 17 18 19 20 21 22 23 24 25 26 27
000
FTUS43 KLOT 222324
TAFMDW
TAF
KMDW 222324Z 2300/2324 18008KT P6SM SCT120 OVC200
     FM230100 VRB03KT P6SM BKN150
     FM230900 02005KT P6SM SCT020 BKN070
     FM231300 04008KT P6SM VCSH SCT008 BKN020
     FM231600 06009KT P6SM SCT010 BKN025=

USA.gov is the U.S. government's official web portal to all federal, state and local government web resources and services.